SIA215 WSSS-YPPH
Flight info
| Callsign | SIA215 |
|---|---|
| Flight time | N/A |
| Altitude | 39000 |
| Route | ANITO7A ANITO B470 PKP L764 LAMOB B469 IDOKU/N0484F410 B469 TOPIR/N0490F400 L514 AVPAL Q38 JULIM JULIM6A |
| Aircraft | A359/H-SDE2E3GHIJ3J4J5LM1ORWXY/LB1D1 |
Departure
| Time | N/A |
|---|---|
| Airport | Singapore Changi Airport (WSSS) |
Arrival
| Time | 2026-04-29 13:22 |
|---|---|
| Airport | Perth International Airport (YPPH) |
| Time | Latitude | Longitude | Altitude | Speed | Heading |
|---|---|---|---|---|---|
| 2026-04-29 12:56 | -29.68179 | 116.65534 | 39110 ft | 468 kts | 190° |
| 2026-04-29 12:56 | -29.74694 | 116.65360 | 39110 ft | 468 kts | 190° |
| 2026-04-29 12:57 | -29.81164 | 116.65186 | 39125 ft | 468 kts | 190° |
| 2026-04-29 12:57 | -29.87675 | 116.65011 | 39129 ft | 468 kts | 190° |
| 2026-04-29 12:58 | -29.92329 | 116.64886 | 39104 ft | 468 kts | 190° |
| 2026-04-29 12:58 | -29.95571 | 116.64801 | 38681 ft | 463 kts | 190° |
| 2026-04-29 12:58 | -29.98792 | 116.64717 | 37917 ft | 464 kts | 190° |
| 2026-04-29 12:58 | -30.02034 | 116.64626 | 37027 ft | 467 kts | 190° |
| 2026-04-29 12:59 | -30.05305 | 116.64532 | 36111 ft | 472 kts | 189° |
| 2026-04-29 12:59 | -30.08612 | 116.64436 | 35484 ft | 478 kts | 189° |
| 2026-04-29 12:59 | -30.11956 | 116.64340 | 34283 ft | 483 kts | 188° |
| 2026-04-29 12:59 | -30.15336 | 116.64247 | 33311 ft | 488 kts | 188° |
| 2026-04-29 13:00 | -30.18737 | 116.64156 | 32417 ft | 490 kts | 188° |
| 2026-04-29 13:00 | -30.22152 | 116.64068 | 31580 ft | 491 kts | 188° |
| 2026-04-29 13:00 | -30.25524 | 116.63981 | 30753 ft | 491 kts | 188° |
| 2026-04-29 13:00 | -30.28948 | 116.63891 | 29884 ft | 492 kts | 188° |
| 2026-04-29 13:01 | -30.32373 | 116.63800 | 28967 ft | 492 kts | 188° |
| 2026-04-29 13:01 | -30.35790 | 116.63710 | 28159 ft | 489 kts | 188° |
| 2026-04-29 13:01 | -30.39182 | 116.63620 | 27422 ft | 486 kts | 188° |
| 2026-04-29 13:01 | -30.42558 | 116.63531 | 26695 ft | 483 kts | 188° |
| 2026-04-29 13:02 | -30.45911 | 116.63441 | 26007 ft | 479 kts | 187° |
| 2026-04-29 13:02 | -30.49239 | 116.63352 | 25331 ft | 476 kts | 187° |
| 2026-04-29 13:02 | -30.52535 | 116.63256 | 24665 ft | 471 kts | 188° |
| 2026-04-29 13:02 | -30.55707 | 116.62772 | 23991 ft | 460 kts | 198° |
| 2026-04-29 13:03 | -30.58798 | 116.61843 | 23278 ft | 455 kts | 201° |
| 2026-04-29 13:03 | -30.61811 | 116.60780 | 22490 ft | 451 kts | 202° |
| 2026-04-29 13:03 | -30.64784 | 116.59642 | 21747 ft | 447 kts | 203° |
| 2026-04-29 13:03 | -30.67718 | 116.58477 | 20999 ft | 444 kts | 203° |
| 2026-04-29 13:04 | -30.70628 | 116.57311 | 20288 ft | 440 kts | 203° |
| 2026-04-29 13:04 | -30.73518 | 116.56157 | 19599 ft | 437 kts | 202° |
| 2026-04-29 13:04 | -30.76364 | 116.55029 | 18919 ft | 435 kts | 202° |
| 2026-04-29 13:04 | -30.79218 | 116.53907 | 18241 ft | 432 kts | 202° |
| 2026-04-29 13:05 | -30.82047 | 116.52799 | 17507 ft | 428 kts | 201° |
| 2026-04-29 13:05 | -30.84859 | 116.51702 | 16800 ft | 424 kts | 201° |
| 2026-04-29 13:05 | -30.87644 | 116.50616 | 16122 ft | 420 kts | 201° |
| 2026-04-29 13:05 | -30.90402 | 116.49540 | 15459 ft | 416 kts | 201° |
| 2026-04-29 13:06 | -30.93138 | 116.48472 | 14833 ft | 411 kts | 201° |
| 2026-04-29 13:06 | -30.95840 | 116.47416 | 14746 ft | 411 kts | 201° |
| 2026-04-29 13:06 | -30.98547 | 116.46355 | 14750 ft | 411 kts | 201° |
| 2026-04-29 13:06 | -31.01254 | 116.45293 | 14672 ft | 406 kts | 201° |
| 2026-04-29 13:07 | -31.03915 | 116.44252 | 14054 ft | 402 kts | 201° |
| 2026-04-29 13:07 | -31.06569 | 116.43210 | 13229 ft | 402 kts | 201° |
| 2026-04-29 13:07 | -31.09183 | 116.42184 | 12535 ft | 399 kts | 201° |
| 2026-04-29 13:07 | -31.11800 | 116.41158 | 11868 ft | 394 kts | 201° |
| 2026-04-29 13:08 | -31.14380 | 116.40145 | 11213 ft | 389 kts | 201° |
| 2026-04-29 13:08 | -31.16925 | 116.39146 | 10816 ft | 378 kts | 201° |
| 2026-04-29 13:08 | -31.19356 | 116.38194 | 10526 ft | 355 kts | 201° |
| 2026-04-29 13:08 | -31.21598 | 116.37316 | 10514 ft | 330 kts | 202° |
| 2026-04-29 13:09 | -31.23741 | 116.36472 | 10478 ft | 322 kts | 202° |
| 2026-04-29 13:09 | -31.25855 | 116.35636 | 10093 ft | 320 kts | 202° |
| 2026-04-29 13:09 | -31.27957 | 116.34806 | 9611 ft | 317 kts | 202° |
| 2026-04-29 13:09 | -31.30003 | 116.34000 | 9287 ft | 302 kts | 202° |
| 2026-04-29 13:10 | -31.31940 | 116.33237 | 9022 ft | 294 kts | 202° |
| 2026-04-29 13:10 | -31.33860 | 116.32478 | 8651 ft | 290 kts | 202° |
| 2026-04-29 13:10 | -31.35767 | 116.31723 | 8250 ft | 288 kts | 202° |
| 2026-04-29 13:10 | -31.37653 | 116.30977 | 7851 ft | 286 kts | 201° |
| 2026-04-29 13:11 | -31.39533 | 116.30233 | 7431 ft | 284 kts | 201° |
| 2026-04-29 13:11 | -31.41390 | 116.29458 | 7281 ft | 283 kts | 205° |
| 2026-04-29 13:11 | -31.43158 | 116.28449 | 7280 ft | 282 kts | 211° |
| 2026-04-29 13:11 | -31.44879 | 116.27356 | 7280 ft | 281 kts | 211° |
| 2026-04-29 13:12 | -31.46594 | 116.26251 | 7281 ft | 281 kts | 211° |
| 2026-04-29 13:12 | -31.48305 | 116.25150 | 7254 ft | 281 kts | 211° |
| 2026-04-29 13:12 | -31.50026 | 116.24045 | 6858 ft | 282 kts | 211° |
| 2026-04-29 13:12 | -31.51162 | 116.23317 | 6626 ft | 280 kts | 211° |
| 2026-04-29 13:13 | -31.52861 | 116.22229 | 6259 ft | 277 kts | 211° |
| 2026-04-29 13:13 | -31.55111 | 116.20788 | 5689 ft | 275 kts | 211° |
| 2026-04-29 13:13 | -31.56220 | 116.20078 | 5407 ft | 274 kts | 211° |
| 2026-04-29 13:13 | -31.57892 | 116.19007 | 5001 ft | 273 kts | 210° |
| 2026-04-29 13:14 | -31.59558 | 116.17939 | 4585 ft | 272 kts | 210° |
| 2026-04-29 13:14 | -31.61210 | 116.16881 | 4486 ft | 265 kts | 210° |
| 2026-04-29 13:14 | -31.62779 | 116.15877 | 4493 ft | 251 kts | 210° |
| 2026-04-29 13:14 | -31.64304 | 116.14898 | 4427 ft | 249 kts | 211° |
| 2026-04-29 13:15 | -31.65821 | 116.13923 | 4422 ft | 250 kts | 210° |
| 2026-04-29 13:15 | -31.67350 | 116.12939 | 4417 ft | 251 kts | 210° |
| 2026-04-29 13:15 | -31.68883 | 116.11954 | 4417 ft | 251 kts | 210° |
| 2026-04-29 13:15 | -31.70407 | 116.10975 | 4347 ft | 245 kts | 210° |
| 2026-04-29 13:16 | -31.71869 | 116.10038 | 4227 ft | 234 kts | 210° |
| 2026-04-29 13:16 | -31.73264 | 116.09142 | 4116 ft | 223 kts | 210° |
| 2026-04-29 13:16 | -31.74585 | 116.08288 | 4013 ft | 210 kts | 211° |
| 2026-04-29 13:16 | -31.75680 | 116.07245 | 3810 ft | 199 kts | 230° |
| 2026-04-29 13:17 | -31.76553 | 116.05990 | 3505 ft | 198 kts | 234° |
| 2026-04-29 13:17 | -31.77379 | 116.04698 | 3161 ft | 197 kts | 235° |
| 2026-04-29 13:17 | -31.78186 | 116.03427 | 2824 ft | 196 kts | 235° |
| 2026-04-29 13:17 | -31.79000 | 116.02154 | 2544 ft | 193 kts | 234° |
| 2026-04-29 13:18 | -31.79847 | 116.00972 | 2345 ft | 187 kts | 225° |
| 2026-04-29 13:18 | -31.80953 | 116.00243 | 2117 ft | 182 kts | 197° |
| 2026-04-29 13:18 | -31.82163 | 115.99960 | 2019 ft | 170 kts | 193° |
| 2026-04-29 13:18 | -31.83266 | 115.99678 | 1960 ft | 156 kts | 197° |
| 2026-04-29 13:19 | -31.84308 | 115.99358 | 1771 ft | 154 kts | 197° |
| 2026-04-29 13:19 | -31.85343 | 115.99054 | 1557 ft | 152 kts | 195° |
| 2026-04-29 13:19 | -31.86345 | 115.98762 | 1343 ft | 143 kts | 197° |
| 2026-04-29 13:19 | -31.87285 | 115.98485 | 1151 ft | 136 kts | 194° |
| 2026-04-29 13:20 | -31.88202 | 115.98217 | 959 ft | 136 kts | 193° |
| 2026-04-29 13:20 | -31.89122 | 115.97948 | 774 ft | 136 kts | 193° |
| 2026-04-29 13:20 | -31.90051 | 115.97684 | 602 ft | 139 kts | 192° |
| 2026-04-29 13:20 | -31.91009 | 115.97412 | 441 ft | 144 kts | 193° |
| 2026-04-29 13:21 | -31.91985 | 115.97129 | 274 ft | 148 kts | 197° |
| 2026-04-29 13:21 | -31.92991 | 115.96819 | 115 ft | 150 kts | 198° |
| 2026-04-29 13:21 | -31.93974 | 115.96509 | 62 ft | 135 kts | 194° |
| 2026-04-29 13:21 | -31.94589 | 115.96345 | 58 ft | 50 kts | 193° |
| 2026-04-29 13:22 | -31.94917 | 115.96252 | 58 ft | 48 kts | 194° |
| 2026-04-29 13:22 | -31.95089 | 115.96296 | 57 ft | 19 kts | 105° |
| 2026-04-29 13:22 | -31.95111 | 115.96413 | 53 ft | 10 kts | 104° |
| 2026-04-29 13:22 | -31.95117 | 115.96441 | 55 ft | 0 kts | 104° |
| 2026-04-29 13:23 | -31.95119 | 115.96449 | 56 ft | 0 kts | 105° |
| 2026-04-29 13:24 | -31.95127 | 115.96480 | 54 ft | 7 kts | 105° |
| 2026-04-29 13:25 | -31.95118 | 115.96523 | 56 ft | 5 kts | 56° |
| 2026-04-29 13:25 | -31.95018 | 115.96570 | 58 ft | 1 kts | 14° |
| 2026-04-29 13:25 | -31.95009 | 115.96572 | 54 ft | 5 kts | 14° |
| 2026-04-29 13:26 | -31.94947 | 115.96590 | 54 ft | 13 kts | 13° |
| 2026-04-29 13:26 | -31.94847 | 115.96619 | 52 ft | 16 kts | 14° |
| 2026-04-29 13:26 | -31.94732 | 115.96652 | 56 ft | 18 kts | 14° |
| 2026-04-29 13:26 | -31.94605 | 115.96689 | 55 ft | 20 kts | 14° |
| 2026-04-29 13:27 | -31.94532 | 115.96730 | 55 ft | 10 kts | 60° |
| 2026-04-29 13:27 | -31.94540 | 115.96811 | 57 ft | 11 kts | 107° |
| 2026-04-29 13:27 | -31.94547 | 115.96888 | 56 ft | 5 kts | 52° |
| 2026-04-29 13:27 | -31.94517 | 115.96902 | 61 ft | 5 kts | 16° |
| 2026-04-29 13:28 | -31.94509 | 115.96904 | 58 ft | 0 kts | 12° |